Time;durP1;ratioP1;P1;durP2;ratioP2;P2;SDS_P1;SDS_P2;PMS_P1;PMS_P2;Temp;Humidity;BMP_temperature;BMP_pressure;BME280_temperature;BME280_humidity;BME280_pressure;Samples;Min_cycle;Max_cycle;Signal;HPM_P1;HPM_P2
2024/01/07 00:01:11;;;;;;;8.13;5.90;;;;;;;3.68;79.47;98126.72;5108059;28;20089;-71
2024/01/07 00:03:37;;;;;;;7.65;5.55;;;;;;;3.56;79.13;98124.69;5107840;28;20111;-70
2024/01/07 00:06:05;;;;;;;7.18;5.68;;;;;;;3.53;79.21;98120.44;5107709;28;20048;-71
2024/01/07 00:08:31;;;;;;;7.25;6.05;;;;;;;3.49;79.13;98122.34;5107723;28;20096;-71
2024/01/07 00:10:58;;;;;;;6.25;5.55;;;;;;;3.49;79.07;98121.50;5107539;28;20044;-71
2024/01/07 00:13:25;;;;;;;6.45;5.47;;;;;;;3.53;79.07;98116.03;5107496;28;20047;-71
2024/01/07 00:15:53;;;;;;;5.85;4.72;;;;;;;3.45;79.02;98115.56;5107465;28;20036;-71
2024/01/07 00:18:22;;;;;;;6.15;4.90;;;;;;;3.44;78.94;98110.38;5089558;28;20288;-71
2024/01/07 00:20:48;;;;;;;5.80;4.72;;;;;;;3.44;78.91;98110.38;5106027;28;20052;-70
2024/01/07 00:23:15;;;;;;;6.45;5.10;;;;;;;3.40;78.88;98125.38;5107153;28;20040;-71
2024/01/07 00:25:42;;;;;;;5.05;4.47;;;;;;;3.44;78.47;98116.47;5107337;28;20089;-71
2024/01/07 00:28:08;;;;;;;7.55;5.40;;;;;;;3.39;78.67;98128.94;5107298;28;20044;-71
2024/01/07 00:30:36;;;;;;;5.57;4.80;;;;;;;3.38;78.55;98124.59;5106948;28;20053;-71
2024/01/07 00:33:02;;;;;;;6.97;5.53;;;;;;;3.41;78.53;98121.84;5107221;28;20091;-70
2024/01/07 00:35:30;;;;;;;5.82;4.55;;;;;;;3.39;78.52;98126.31;5107076;28;20055;-71
2024/01/07 00:37:57;;;;;;;5.88;4.55;;;;;;;3.36;78.44;98125.59;5107431;28;20043;-71
2024/01/07 00:40:24;;;;;;;5.38;4.47;;;;;;;3.35;78.65;98131.75;5107059;28;20044;-71
2024/01/07 00:42:51;;;;;;;5.20;4.20;;;;;;;3.35;78.57;98137.00;5106720;28;20052;-71
2024/01/07 00:45:17;;;;;;;7.40;5.65;;;;;;;3.36;78.54;98136.94;5106953;28;20101;-71
2024/01/07 00:47:44;;;;;;;6.63;5.00;;;;;;;3.35;78.49;98135.22;5106924;28;20101;-71
2024/01/07 00:50:11;;;;;;;6.40;4.40;;;;;;;3.30;78.42;98141.59;5106625;28;20201;-71
2024/01/07 00:52:42;;;;;;;7.95;5.13;;;;;;;3.25;78.56;98136.56;5106788;28;20075;-71
2024/01/07 00:55:09;;;;;;;6.00;4.88;;;;;;;3.23;78.15;98132.31;5107114;28;20059;-71
2024/01/07 00:57:36;;;;;;;6.95;5.10;;;;;;;3.19;78.34;98142.06;5106511;28;20177;-71
2024/01/07 01:00:07;;;;;;;6.45;4.88;;;;;;;3.23;78.43;98154.09;5106699;28;20052;-71
2024/01/07 01:02:33;;;;;;;6.55;5.45;;;;;;;3.18;77.88;98148.22;5106349;28;20360;-71
2024/01/07 01:05:00;;;;;;;5.82;5.10;;;;;;;3.17;77.91;98147.38;5106792;28;20047;-71
2024/01/07 01:07:27;;;;;;;6.80;4.85;;;;;;;3.19;77.99;98148.16;5106335;28;20040;-71
2024/01/07 01:09:55;;;;;;;6.45;4.50;;;;;;;3.21;77.89;98155.94;5106274;28;20044;-71
2024/01/07 01:12:21;;;;;;;6.78;5.10;;;;;;;3.17;77.92;98147.38;5088409;28;20085;-70
2024/01/07 01:14:48;;;;;;;5.22;4.43;;;;;;;3.13;77.89;98158.91;5106504;28;20039;-71
2024/01/07 01:17:15;;;;;;;6.03;4.63;;;;;;;3.03;77.79;98164.59;5106620;28;20086;-71
2024/01/07 01:19:41;;;;;;;5.93;4.18;;;;;;;3.06;77.94;98161.84;5106688;28;20094;-70
2024/01/07 01:22:08;;;;;;;6.45;4.90;;;;;;;3.07;77.68;98164.41;5106363;28;20104;-71
2024/01/07 01:24:35;;;;;;;5.82;4.05;;;;;;;2.82;77.51;98125.38;5106562;28;20097;-71
2024/01/07 01:27:03;;;;;;;5.32;4.05;;;;;;;3.07;77.68;98158.31;5105973;28;20040;-71
2024/01/07 01:29:29;;;;;;;6.15;4.43;;;;;;;3.09;77.58;98157.34;5106231;28;20230;-71
2024/01/07 01:31:58;;;;;;;8.88;4.82;;;;;;;3.09;77.66;98166.97;5105527;28;20246;-71
2024/01/07 01:34:24;;;;;;;6.10;4.78;;;;;;;3.08;77.44;98167.88;5106091;28;20063;-71
2024/01/07 01:36:51;;;;;;;5.78;5.13;;;;;;;3.08;77.63;98170.50;5106054;28;20093;-71
2024/01/07 01:39:18;;;;;;;5.78;5.03;;;;;;;2.99;77.67;98168.28;5088598;28;20065;-71
2024/01/07 01:41:45;;;;;;;5.90;4.43;;;;;;;3.00;77.76;98170.81;5106363;28;20052;-70
2024/01/07 01:44:13;;;;;;;6.13;4.65;;;;;;;2.81;77.66;98141.13;5106313;28;20108;-70
2024/01/07 01:46:39;;;;;;;5.95;4.95;;;;;;;2.94;77.33;98165.00;5106061;28;20040;-69
2024/01/07 01:49:07;;;;;;;7.35;5.25;;;;;;;2.94;77.32;98159.78;5105708;28;20044;-69
2024/01/07 01:51:35;;;;;;;6.07;4.55;;;;;;;2.79;77.40;98132.50;5105520;28;20200;-70
2024/01/07 01:54:02;;;;;;;5.30;4.47;;;;;;;2.90;77.22;98161.66;5105884;28;20040;-70
2024/01/07 01:56:30;;;;;;;6.25;4.45;;;;;;;2.80;76.91;98160.38;5105899;28;20055;-70
2024/01/07 01:58:57;;;;;;;5.88;4.68;;;;;;;2.64;77.39;98123.53;5106157;28;20039;-70
2024/01/07 02:01:25;;;;;;;5.78;4.60;;;;;;;2.87;77.50;98149.56;5105843;28;20277;-69
2024/01/07 02:03:53;;;;;;;5.15;4.53;;;;;;;2.96;77.30;98152.69;5105565;28;20101;-70
2024/01/07 02:06:20;;;;;;;6.80;4.78;;;;;;;3.00;77.37;98159.50;5105892;28;20064;-70
2024/01/07 02:08:48;;;;;;;6.53;4.80;;;;;;;2.97;77.34;98154.41;5105816;28;20044;-70
2024/01/07 02:11:16;;;;;;;6.95;4.55;;;;;;;2.97;77.33;98151.78;5106025;28;20055;-70
2024/01/07 02:13:43;;;;;;;5.85;4.75;;;;;;;2.98;77.48;98158.72;5105422;28;20040;-70
2024/01/07 02:16:10;;;;;;;6.32;5.10;;;;;;;2.94;77.78;98139.69;5087710;28;20074;-70
2024/01/07 02:18:39;;;;;;;5.93;4.95;;;;;;;2.71;77.80;98114.50;5105974;28;20051;-70
2024/01/07 02:21:05;;;;;;;5.90;4.57;;;;;;;2.71;78.00;98105.81;5105370;28;20090;-70
2024/01/07 02:23:32;;;;;;;6.75;5.07;;;;;;;2.91;77.84;98134.59;5105920;28;20040;-70
2024/01/07 02:25:59;;;;;;;6.93;5.05;;;;;;;2.92;77.99;98141.53;5087683;28;20089;-69
2024/01/07 02:28:25;;;;;;;6.68;5.05;;;;;;;2.92;77.87;98146.75;5105874;28;20054;-72
2024/01/07 02:30:52;;;;;;;6.00;4.95;;;;;;;2.96;77.57;98150.94;5105587;28;20044;-70
2024/01/07 02:33:19;;;;;;;5.97;4.97;;;;;;;2.94;77.47;98160.63;5105862;28;20048;-70
2024/01/07 02:35:46;;;;;;;6.22;5.07;;;;;;;2.99;77.58;98152.56;5105270;28;20043;-71
2024/01/07 02:38:12;;;;;;;5.78;5.18;;;;;;;2.94;77.61;98172.84;5105247;28;20196;-70
2024/01/07 02:40:39;;;;;;;6.43;4.95;;;;;;;2.94;77.68;98178.09;5087529;28;20371;-70
2024/01/07 02:43:07;;;;;;;5.90;5.20;;;;;;;2.86;77.59;98163.56;5105240;28;20036;-70
2024/01/07 02:45:34;;;;;;;7.13;5.25;;;;;;;2.90;77.35;98169.53;5109575;28;20097;-70
2024/01/07 02:48:00;;;;;;;8.60;5.15;;;;;;;2.63;77.28;98132.31;5109004;28;20200;-70
2024/01/07 02:50:27;;;;;;;5.32;4.80;;;;;;;2.77;77.05;98168.34;5108863;28;20060;-71
2024/01/07 02:52:53;;;;;;;7.90;5.07;;;;;;;2.75;77.16;98176.25;5091989;28;20043;-70
2024/01/07 02:55:21;;;;;;;7.10;5.03;;;;;;;2.77;77.02;98171.81;5108975;28;20040;-70
2024/01/07 02:57:48;;;;;;;7.80;6.68;;;;;;;2.71;76.66;98171.22;5109119;28;20040;-70
2024/01/07 03:00:16;;;;;;;7.22;4.78;;;;;;;2.72;76.84;98171.16;5109402;28;20107;-70
2024/01/07 03:02:43;;;;;;;6.85;5.18;;;;;;;2.72;76.43;98165.94;5109065;28;20044;-70
2024/01/07 03:05:10;;;;;;;7.03;5.43;;;;;;;2.72;76.37;98165.94;5108996;28;20043;-70
2024/01/07 03:07:38;;;;;;;6.45;5.38;;;;;;;2.71;76.30;98177.31;5109205;28;20048;-70
2024/01/07 03:10:06;;;;;;;7.35;5.15;;;;;;;2.70;76.13;98174.75;5109162;28;20040;-71
2024/01/07 03:12:33;;;;;;;6.68;5.07;;;;;;;2.68;75.86;98179.19;5108828;28;20054;-70
2024/01/07 03:15:00;;;;;;;7.47;5.20;;;;;;;2.64;76.17;98181.09;5108502;28;20052;-70
2024/01/07 03:17:28;;;;;;;6.60;5.60;;;;;;;2.67;76.21;98180.13;5108531;28;20085;-70
2024/01/07 03:19:55;;;;;;;7.68;5.80;;;;;;;2.69;76.26;98179.13;5108401;28;20043;-70
2024/01/07 03:22:21;;;;;;;7.15;5.78;;;;;;;2.71;76.39;98171.22;5108629;28;20051;-70
2024/01/07 03:24:48;;;;;;;7.43;5.97;;;;;;;2.73;76.34;98175.47;5108620;28;20043;-70
2024/01/07 03:27:14;;;;;;;6.78;5.40;;;;;;;2.65;76.23;98176.72;5091320;28;20040;-70
2024/01/07 03:29:41;;;;;;;7.03;5.68;;;;;;;2.68;76.37;98181.81;5108246;28;20101;-70
2024/01/07 03:32:08;;;;;;;6.55;5.00;;;;;;;2.62;76.23;98182.06;5090440;28;20093;-70
2024/01/07 03:34:36;;;;;;;6.72;5.45;;;;;;;2.63;76.49;98182.00;5108497;28;20081;-70
2024/01/07 03:37:02;;;;;;;6.43;5.00;;;;;;;2.56;76.48;98185.78;5090251;28;20044;-70
2024/01/07 03:39:29;;;;;;;6.18;5.50;;;;;;;2.49;76.59;98179.13;5108319;28;20055;-70
2024/01/07 03:41:56;;;;;;;6.88;5.78;;;;;;;2.48;76.37;98180.03;5108237;28;20101;-70
2024/01/07 03:44:22;;;;;;;7.85;6.70;;;;;;;1.69;76.09;98083.94;5108223;28;20097;-70
2024/01/07 03:46:50;;;;;;;9.27;6.75;;;;;;;2.49;76.03;98176.50;5108170;28;20345;-70
2024/01/07 03:49:17;;;;;;;8.32;6.35;;;;;;;2.43;75.36;98172.38;5089834;28;20360;-70
2024/01/07 03:51:45;;;;;;;8.15;6.78;;;;;;;2.24;75.75;98145.28;5107800;28;20054;-70
2024/01/07 03:54:12;;;;;;;9.95;7.45;;;;;;;2.41;75.55;98181.19;5107704;28;20044;-70
2024/01/07 03:56:38;;;;;;;9.77;7.15;;;;;;;2.45;75.57;98172.31;5108157;28;20055;-71
2024/01/07 03:59:05;;;;;;;8.48;6.85;;;;;;;2.45;75.57;98170.53;5107637;28;20312;-71
2024/01/07 04:01:32;;;;;;;8.55;6.63;;;;;;;2.44;75.58;98188.91;5107853;28;20054;-70
2024/01/07 04:03:58;;;;;;;8.82;6.53;;;;;;;2.42;75.29;98186.34;5107851;28;20040;-70
2024/01/07 04:06:25;;;;;;;8.20;6.28;;;;;;;2.37;75.84;98184.84;5107499;28;20370;-70
2024/01/07 04:08:53;;;;;;;9.55;6.53;;;;;;;2.47;75.84;98197.47;5090263;28;20040;-71
2024/01/07 04:11:19;;;;;;;8.40;6.30;;;;;;;2.45;76.00;98191.47;5107988;28;20101;-71
2024/01/07 04:13:46;;;;;;;8.20;5.97;;;;;;;2.38;75.89;98192.63;5089581;28;20081;-70
2024/01/07 04:16:19;;;;;;;6.50;5.28;;;;;;;1.45;75.32;98081.34;5107782;28;20180;-70
2024/01/07 04:18:46;;;;;;;8.20;6.43;;;;;;;2.29;75.33;98202.59;5107535;28;20040;-70
2024/01/07 04:21:13;;;;;;;8.07;6.93;;;;;;;2.31;75.47;98206.00;5107160;28;20306;-71
2024/01/07 04:23:40;;;;;;;7.28;6.03;;;;;;;2.28;75.41;98206.13;5089431;28;20040;-71
2024/01/07 04:26:08;;;;;;;8.43;6.88;;;;;;;2.29;75.40;98205.22;5107370;28;20044;-71
2024/01/07 04:28:35;;;;;;;9.45;6.25;;;;;;;2.29;75.47;98215.69;5107307;28;20055;-71
2024/01/07 04:31:02;;;;;;;7.85;6.18;;;;;;;2.34;75.28;98213.72;5107281;28;20055;-71
2024/01/07 04:33:28;;;;;;;9.40;6.97;;;;;;;2.32;75.57;98218.16;5107261;28;20311;-70
2024/01/07 04:35:57;;;;;;;9.18;6.90;;;;;;;2.13;75.77;98182.31;5107206;28;20051;-70
2024/01/07 04:38:24;;;;;;;22.45;20.25;;;;;;;2.12;75.87;98192.81;5107142;28;20047;-70
2024/01/07 04:40:51;;;;;;;13.55;11.60;;;;;;;2.35;75.73;98221.50;5106839;28;20032;-70
2024/01/07 04:43:19;;;;;;;10.20;8.05;;;;;;;2.34;75.95;98227.66;5107060;28;20062;-70
2024/01/07 04:45:46;;;;;;;7.47;6.22;;;;;;;2.10;75.88;98186.81;5107050;28;20055;-71
2024/01/07 04:48:12;;;;;;;8.10;6.30;;;;;;;2.30;76.10;98217.38;5106963;28;20044;-71
2024/01/07 04:50:40;;;;;;;7.13;5.32;;;;;;;2.27;75.98;98226.19;5106377;28;20056;-70
2024/01/07 04:53:07;;;;;;;6.40;5.35;;;;;;;2.30;76.06;98231.31;5107102;28;20103;-70
2024/01/07 04:55:34;;;;;;;8.70;6.57;;;;;;;2.31;75.79;98238.25;5106805;28;20044;-70
2024/01/07 04:58:01;;;;;;;8.00;6.22;;;;;;;2.34;75.95;98238.13;5106742;28;20089;-71
2024/01/07 05:00:29;;;;;;;7.97;5.65;;;;;;;2.27;75.76;98241.88;5107033;28;20048;-70
2024/01/07 05:02:55;;;;;;;7.63;6.28;;;;;;;2.26;75.65;98239.34;5107006;28;20055;-70
2024/01/07 05:05:22;;;;;;;7.53;6.68;;;;;;;2.28;75.68;98248.81;5106629;28;20052;-71
2024/01/07 05:07:49;;;;;;;7.13;6.43;;;;;;;2.28;75.65;98247.97;5106298;28;20040;-71
2024/01/07 05:10:16;;;;;;;8.50;6.70;;;;;;;2.26;75.64;98244.56;5106806;28;20040;-71
2024/01/07 05:12:42;;;;;;;7.50;6.70;;;;;;;2.29;75.65;98245.28;5106267;28;20062;-70
2024/01/07 05:15:10;;;;;;;9.95;7.07;;;;;;;2.27;75.38;98243.66;5106546;28;20043;-69
2024/01/07 05:17:38;;;;;;;8.02;7.22;;;;;;;1.86;75.63;98173.78;5106112;28;20040;-70
2024/01/07 05:20:06;;;;;;;8.68;7.00;;;;;;;2.26;75.59;98245.41;5106400;28;20055;-70
2024/01/07 05:22:32;;;;;;;7.60;5.50;;;;;;;2.18;75.39;98247.47;5106407;28;20050;-71
2024/01/07 05:24:59;;;;;;;8.23;6.65;;;;;;;2.19;75.25;98252.66;5106353;28;20043;-70
2024/01/07 05:27:26;;;;;;;7.65;5.88;;;;;;;2.07;75.09;98252.25;5105697;28;20207;-70
2024/01/07 05:29:54;;;;;;;8.75;6.95;;;;;;;2.10;75.44;98253.00;5106261;28;20044;-70
2024/01/07 05:32:21;;;;;;;8.48;7.05;;;;;;;2.08;75.15;98249.59;5106223;28;20097;-70
2024/01/07 05:34:50;;;;;;;7.38;6.32;;;;;;;2.10;75.16;98258.22;5105868;28;20101;-71
2024/01/07 05:37:16;;;;;;;7.80;6.28;;;;;;;2.05;74.75;98256.69;5106086;28;20303;-70
2024/01/07 05:39:43;;;;;;;8.38;6.25;;;;;;;1.71;75.10;98200.50;5106061;28;20054;-70
2024/01/07 05:42:10;;;;;;;10.23;6.72;;;;;;;1.90;75.21;98234.63;5105843;28;20051;-70
2024/01/07 05:44:37;;;;;;;8.10;6.78;;;;;;;1.84;75.12;98229.63;5106042;28;20036;-71
2024/01/07 05:47:04;;;;;;;8.40;7.15;;;;;;;1.72;74.95;98227.47;5105965;28;20215;-70
2024/01/07 05:49:30;;;;;;;7.50;6.38;;;;;;;2.00;75.42;98276.94;5106188;28;20208;-70
2024/01/07 05:51:58;;;;;;;7.88;6.88;;;;;;;2.00;75.15;98280.41;5105920;28;20073;-70
2024/01/07 05:54:25;;;;;;;6.88;5.95;;;;;;;1.98;75.27;98279.59;5105845;28;20040;-71
2024/01/07 05:56:52;;;;;;;9.15;6.88;;;;;;;1.92;75.13;98282.44;5105885;28;20170;-71
2024/01/07 05:59:19;;;;;;;8.32;6.30;;;;;;;1.75;75.24;98253.47;5105853;28;20055;-71
2024/01/07 06:01:45;;;;;;;9.45;6.90;;;;;;;1.92;74.86;98292.91;5105801;28;20044;-70
2024/01/07 06:04:12;;;;;;;7.95;6.03;;;;;;;1.87;74.46;98290.44;5105844;28;20052;-70
2024/01/07 06:06:38;;;;;;;7.22;6.10;;;;;;;1.85;74.31;98291.41;5105616;28;20044;-70
2024/01/07 06:09:06;;;;;;;8.48;7.22;;;;;;;1.89;74.54;98300.84;5106088;28;20169;-71
2024/01/07 06:11:33;;;;;;;9.68;7.05;;;;;;;1.69;73.58;98301.56;5105764;28;20058;-71
2024/01/07 06:14:00;;;;;;;8.05;6.78;;;;;;;1.76;74.13;98304.81;5106012;28;20040;-71
2024/01/07 06:16:26;;;;;;;8.25;6.85;;;;;;;1.81;74.34;98305.50;5105695;28;20044;-70
2024/01/07 06:18:53;;;;;;;7.88;6.57;;;;;;;1.75;74.06;98300.50;5108722;28;20044;-70
2024/01/07 06:21:19;;;;;;;8.55;6.35;;;;;;;1.71;74.15;98298.91;5110733;28;20101;-70
2024/01/07 06:23:46;;;;;;;7.43;6.57;;;;;;;1.66;74.11;98303.44;5109802;28;20040;-70
2024/01/07 06:26:16;;;;;;;8.15;6.95;;;;;;;1.63;73.68;98301.78;5109399;28;20052;-70
2024/01/07 06:28:43;;;;;;;7.57;6.45;;;;;;;1.61;74.23;98308.84;5091695;28;20268;-71
2024/01/07 06:31:09;;;;;;;7.60;6.55;;;;;;;1.61;73.56;98313.22;5109548;28;20051;-70
2024/01/07 06:33:36;;;;;;;8.32;7.00;;;;;;;1.58;73.74;98314.97;5109688;28;20070;-70
2024/01/07 06:36:02;;;;;;;8.05;6.95;;;;;;;1.55;73.39;98316.84;5109373;28;20292;-70
2024/01/07 06:38:29;;;;;;;8.00;5.88;;;;;;;1.60;74.15;98320.19;5109273;28;20238;-70
2024/01/07 06:41:00;;;;;;;8.98;6.97;;;;;;;1.65;74.29;98317.41;5109724;28;20052;-70
2024/01/07 06:43:28;;;;;;;7.03;6.22;;;;;;;1.63;74.29;98321.84;5109596;28;20044;-70
2024/01/07 06:45:55;;;;;;;8.77;6.53;;;;;;;1.62;74.36;98333.19;5109381;28;20115;-70
2024/01/07 06:48:22;;;;;;;7.72;6.32;;;;;;;1.54;74.38;98336.88;5109701;28;20185;-70
2024/01/07 06:50:48;;;;;;;7.55;6.03;;;;;;;1.50;74.46;98335.28;5109266;28;20109;-70
2024/01/07 06:53:16;;;;;;;8.38;6.97;;;;;;;1.50;74.47;98340.50;5092044;28;20047;-70
2024/01/07 06:55:43;;;;;;;8.65;6.68;;;;;;;1.50;74.52;98344.88;5109551;28;20051;-70
2024/01/07 06:58:09;;;;;;;8.10;6.38;;;;;;;1.51;74.19;98337.00;5109566;28;20044;-70
2024/01/07 07:00:37;;;;;;;9.75;6.53;;;;;;;1.56;74.15;98349.91;5109509;28;20089;-70
2024/01/07 07:03:05;;;;;;;8.27;6.18;;;;;;;1.57;73.99;98349.84;5109573;28;20090;-70
2024/01/07 07:05:31;;;;;;;9.00;6.43;;;;;;;1.58;74.08;98348.94;5109375;28;20086;-70
2024/01/07 07:07:58;;;;;;;8.55;6.30;;;;;;;1.43;73.98;98352.06;5109304;28;20090;-70
2024/01/07 07:10:25;;;;;;;7.15;5.95;;;;;;;1.42;74.15;98363.44;5108847;28;20086;-70
2024/01/07 07:12:52;;;;;;;7.20;5.97;;;;;;;1.26;74.05;98362.25;5091019;28;20101;-70
2024/01/07 07:15:18;;;;;;;8.77;6.75;;;;;;;1.32;74.40;98367.25;5109074;28;20052;-69
2024/01/07 07:17:46;;;;;;;6.43;5.43;;;;;;;1.07;74.08;98350.69;5090604;28;20227;-69
2024/01/07 07:20:13;;;;;;;8.70;6.45;;;;;;;1.30;74.27;98387.34;5108606;28;20044;-70
2024/01/07 07:22:40;;;;;;;7.80;6.70;;;;;;;1.33;74.38;98382.00;5108958;28;20055;-70
2024/01/07 07:25:07;;;;;;;8.60;6.20;;;;;;;1.29;74.36;98382.16;5108704;28;20050;-70
2024/01/07 07:27:34;;;;;;;8.40;6.43;;;;;;;1.35;74.24;98374.13;5108468;28;20036;-70
2024/01/07 07:30:01;;;;;;;9.82;6.55;;;;;;;0.83;74.33;98305.41;5107983;28;20052;-70
2024/01/07 07:32:27;;;;;;;9.73;7.72;;;;;;;1.24;73.91;98392.75;5108783;28;20281;-70
2024/01/07 07:34:56;;;;;;;7.97;5.97;;;;;;;1.23;74.45;98389.28;5108429;28;20044;-70
2024/01/07 07:37:22;;;;;;;8.75;7.05;;;;;;;1.05;74.77;98362.94;5108262;28;20052;-70
2024/01/07 07:39:49;;;;;;;7.53;5.82;;;;;;;1.29;74.68;98397.81;5108081;28;20085;-70
2024/01/07 07:42:16;;;;;;;8.82;7.28;;;;;;;1.11;74.85;98365.34;5108020;28;20083;-70
2024/01/07 07:44:43;;;;;;;9.65;6.75;;;;;;;1.30;74.83;98404.75;5108292;28;20070;-70
2024/01/07 07:47:11;;;;;;;8.00;6.70;;;;;;;1.33;74.83;98412.50;5108464;28;20145;-70
2024/01/07 07:49:39;;;;;;;9.23;6.18;;;;;;;1.28;75.14;98411.78;5107254;28;20052;-70
2024/01/07 07:52:08;;;;;;;10.15;6.10;;;;;;;1.28;75.56;98414.41;5108080;28;20315;-70
2024/01/07 07:54:35;;;;;;;9.00;6.60;;;;;;;0.40;75.27;98317.19;5108082;28;20040;-70
2024/01/07 07:57:02;;;;;;;7.03;5.47;;;;;;;1.10;75.38;98423.66;5090310;28;20196;-70
2024/01/07 07:59:28;;;;;;;7.88;5.60;;;;;;;1.07;75.35;98431.59;5107891;28;20196;-70
2024/01/07 08:01:55;;;;;;;10.35;6.55;;;;;;;1.03;75.00;98419.56;5107636;28;20036;-70
2024/01/07 08:04:22;;;;;;;7.00;5.63;;;;;;;1.06;75.10;98427.28;5107808;28;20047;-70
2024/01/07 08:06:48;;;;;;;7.30;5.70;;;;;;;1.14;74.70;98422.66;5107564;28;20090;-70
2024/01/07 08:09:16;;;;;;;8.05;6.68;;;;;;;1.13;74.37;98429.66;5107418;28;20036;-70
2024/01/07 08:11:43;;;;;;;8.90;6.75;;;;;;;1.15;74.46;98430.44;5107450;28;20043;-70
2024/01/07 08:14:10;;;;;;;8.68;6.18;;;;;;;1.14;74.35;98439.19;5107918;28;20115;-70
2024/01/07 08:16:36;;;;;;;8.43;6.00;;;;;;;1.17;74.52;98439.09;5107596;28;20105;-70
2024/01/07 08:19:03;;;;;;;9.60;6.97;;;;;;;1.12;74.88;98451.44;5107674;28;20188;-70
2024/01/07 08:21:29;;;;;;;7.15;6.45;;;;;;;1.16;74.78;98454.78;5107246;28;20048;-70
2024/01/07 08:23:56;;;;;;;9.20;7.43;;;;;;;1.19;74.68;98452.09;5107643;28;20044;-70
2024/01/07 08:26:24;;;;;;;10.68;8.30;;;;;;;1.20;74.96;98456.41;5107393;28;20039;-70
2024/01/07 08:28:52;;;;;;;7.47;6.05;;;;;;;0.93;75.09;98417.22;5107069;28;20366;-70
2024/01/07 08:31:18;;;;;;;8.52;6.72;;;;;;;0.95;75.15;98427.63;5107283;28;20050;-70
2024/01/07 08:33:45;;;;;;;9.85;7.70;;;;;;;0.95;75.39;98432.84;5107480;28;20044;-70
2024/01/07 08:36:12;;;;;;;9.82;7.25;;;;;;;1.14;75.44;98477.47;5090045;28;20044;-70
2024/01/07 08:38:38;;;;;;;9.52;6.85;;;;;;;1.08;75.97;98478.53;5107327;28;20044;-70
2024/01/07 08:41:05;;;;;;;6.93;6.22;;;;;;;0.92;74.95;98478.13;5106111;28;20055;-70
2024/01/07 08:43:33;;;;;;;9.38;6.60;;;;;;;0.89;73.62;98470.41;5107358;28;20051;-70
2024/01/07 08:46:00;;;;;;;10.82;7.18;;;;;;;0.93;73.13;98481.59;5106962;28;20090;-70
2024/01/07 08:48:26;;;;;;;8.95;7.05;;;;;;;0.93;72.92;98479.00;5106951;28;20097;-70
2024/01/07 08:50:53;;;;;;;11.00;6.72;;;;;;;0.92;73.62;98480.75;5106525;28;20370;-70
2024/01/07 08:53:20;;;;;;;9.75;6.72;;;;;;;0.79;73.28;98445.50;5106905;28;20361;-69
2024/01/07 08:55:46;;;;;;;11.27;7.15;;;;;;;1.03;73.33;98490.00;5106824;28;20039;-69
2024/01/07 08:58:14;;;;;;;8.73;6.28;;;;;;;1.04;73.60;98505.59;5106654;28;20089;-70
2024/01/07 09:00:42;;;;;;;9.05;6.28;;;;;;;1.02;73.51;98496.97;5106728;28;20090;-70
2024/01/07 09:03:09;;;;;;;8.80;6.85;;;;;;;1.07;73.81;98499.44;5088864;28;20306;-70
2024/01/07 09:05:35;;;;;;;8.70;6.97;;;;;;;1.06;74.08;98500.34;5106930;28;20044;-70
2024/01/07 09:08:02;;;;;;;8.25;7.13;;;;;;;1.07;74.24;98502.91;5106597;28;20063;-70
2024/01/07 09:10:29;;;;;;;9.68;6.95;;;;;;;0.96;74.91;98498.91;5106275;28;20316;-70
2024/01/07 09:12:55;;;;;;;11.00;7.25;;;;;;;1.02;74.89;98511.78;5106734;28;20265;-70
2024/01/07 09:15:22;;;;;;;9.52;7.82;;;;;;;1.03;74.75;98518.72;5106798;28;20247;-70
2024/01/07 09:17:50;;;;;;;9.30;7.53;;;;;;;1.01;74.94;98515.28;5106197;28;20246;-70
2024/01/07 09:20:17;;;;;;;11.13;9.00;;;;;;;1.03;75.10;98510.88;5106379;28;20044;-70
2024/01/07 09:22:44;;;;;;;9.30;7.72;;;;;;;1.02;75.31;98510.03;5106060;28;20109;-70
2024/01/07 09:25:11;;;;;;;11.23;7.93;;;;;;;0.99;75.35;98506.66;5106516;28;20280;-70
2024/01/07 09:27:39;;;;;;;9.23;7.78;;;;;;;0.94;75.51;98510.25;5106293;28;20074;-70
2024/01/07 09:30:06;;;;;;;10.07;7.50;;;;;;;0.19;75.51;98385.59;5106264;28;20048;-70
2024/01/07 09:32:33;;;;;;;9.52;7.88;;;;;;;0.90;75.54;98508.63;5105934;28;20051;-70
2024/01/07 09:35:01;;;;;;;9.90;7.35;;;;;;;0.85;75.55;98512.28;5106181;28;20044;-70
2024/01/07 09:37:28;;;;;;;9.18;6.72;;;;;;;0.90;75.49;98511.25;5106160;28;20119;-71
2024/01/07 09:39:55;;;;;;;9.95;7.10;;;;;;;0.88;75.33;98513.03;5106185;28;20180;-70
2024/01/07 09:42:21;;;;;;;8.80;7.18;;;;;;;0.93;75.45;98518.97;5105774;28;20107;-70
2024/01/07 09:44:51;;;;;;;9.55;7.10;;;;;;;0.97;75.70;98513.66;5106249;28;20048;-70
2024/01/07 09:47:18;;;;;;;9.25;7.80;;;;;;;0.90;75.57;98516.47;5105987;28;20040;-70
2024/01/07 09:49:45;;;;;;;8.88;7.53;;;;;;;0.63;75.91;98487.72;5105736;28;20056;-70
2024/01/07 09:52:13;;;;;;;11.48;7.68;;;;;;;0.85;75.85;98520.09;5105674;28;20047;-70
2024/01/07 09:54:41;;;;;;;9.95;7.60;;;;;;;0.94;75.56;98522.44;5089262;28;20036;-70
2024/01/07 09:57:10;;;;;;;9.77;7.10;;;;;;;0.91;75.63;98519.94;5105967;28;20119;-70
2024/01/07 09:59:38;;;;;;;8.93;6.80;;;;;;;0.90;75.78;98521.69;5105527;28;20254;-70
2024/01/07 10:02:05;;;;;;;8.60;6.90;;;;;;;0.83;75.27;98514.94;5105255;28;20058;-70
2024/01/07 10:04:32;;;;;;;8.77;7.20;;;;;;;0.78;75.66;98511.59;5105586;28;20089;-70
2024/01/07 10:06:59;;;;;;;7.70;6.10;;;;;;;0.76;75.46;98505.56;5106103;28;20048;-70
2024/01/07 10:09:30;;;;;;;9.02;6.85;;;;;;;0.74;75.35;98520.41;5088228;28;20036;-70
2024/01/07 10:11:57;;;;;;;9.52;6.55;;;;;;;0.80;75.26;98516.78;5105834;28;20044;-70
2024/01/07 10:14:24;;;;;;;8.80;6.60;;;;;;;0.79;74.94;98518.53;5105728;28;20051;-70
2024/01/07 10:16:51;;;;;;;10.10;6.90;;;;;;;0.70;75.06;98518.78;5105728;28;20058;-71
2024/01/07 10:19:22;;;;;;;8.15;5.97;;;;;;;0.67;75.04;98512.81;5105477;28;20044;-70
2024/01/07 10:22:00;;;;;;;8.90;7.28;;;;;;;0.67;74.97;98508.44;5105670;28;20109;-70
2024/01/07 10:24:36;;;;;;;10.25;7.05;;;;;;;0.71;75.05;98522.25;5105597;28;20050;-70
2024/01/07 10:27:03;;;;;;;7.95;6.43;;;;;;;0.70;74.93;98523.16;5105692;28;20296;-70
2024/01/07 10:29:30;;;;;;;8.15;6.32;;;;;;;0.74;74.68;98520.41;5105650;28;20032;-70
2024/01/07 10:31:57;;;;;;;8.63;6.78;;;;;;;0.77;74.67;98520.34;5105522;28;20044;-70
2024/01/07 10:34:24;;;;;;;9.38;7.18;;;;;;;0.70;73.98;98528.38;5105577;28;20097;-70
2024/01/07 10:36:54;;;;;;;10.95;8.05;;;;;;;0.73;74.32;98529.13;5105266;28;20242;-70
2024/01/07 10:39:20;;;;;;;10.55;7.32;;;;;;;0.73;74.15;98525.69;5105701;28;20040;-70
2024/01/07 10:41:52;;;;;;;8.75;6.63;;;;;;;0.66;74.08;98527.59;5105131;28;20342;-70
2024/01/07 10:44:19;;;;;;;9.32;6.30;;;;;;;0.63;73.81;98525.09;5105167;28;20181;-70
2024/01/07 10:46:47;;;;;;;10.82;6.72;;;;;;;0.61;73.85;98529.50;5105106;28;20328;-70
2024/01/07 10:49:20;;;;;;;9.68;6.80;;;;;;;0.54;73.75;98533.16;5105152;28;20044;-70
2024/01/07 10:51:48;;;;;;;10.23;6.57;;;;;;;0.58;74.02;98527.81;5065032;28;20352;-70
2024/01/07 10:54:19;;;;;;;8.90;6.90;;;;;;;0.59;73.64;98531.28;5064996;28;20053;-70
2024/01/07 10:56:49;;;;;;;10.57;7.30;;;;;;;0.34;73.73;98501.59;5063900;28;20083;-70
2024/01/07 10:59:20;;;;;;;9.80;7.10;;;;;;;0.52;73.75;98525.38;5064608;28;20298;-70
2024/01/07 11:01:46;;;;;;;11.32;6.93;;;;;;;0.54;73.70;98535.78;5064598;28;20052;-70
2024/01/07 11:04:22;;;;;;;9.63;7.05;;;;;;;0.53;73.83;98544.50;5047704;28;20067;-70
2024/01/07 11:06:56;;;;;;;10.32;8.55;;;;;;;0.01;73.82;98479.91;5068547;28;20052;-70
2024/01/07 11:09:31;;;;;;;13.40;7.30;;;;;;;0.51;73.70;98535.84;5068250;28;20235;-70
2024/01/07 11:11:58;;;;;;;12.88;7.93;;;;;;;0.50;73.42;98532.41;5068192;28;20041;-70
2024/01/07 11:14:40;;;;;;;9.95;7.60;;;;;;;0.50;73.88;98536.75;5067342;28;20048;-70
2024/01/07 11:17:07;;;;;;;10.52;6.65;;;;;;;0.43;73.50;98527.41;5068740;28;20060;-69
2024/01/07 11:19:34;;;;;;;11.98;8.68;;;;;;;0.44;73.85;98526.50;5068005;28;20067;-70
2024/01/07 11:22:24;;;;;;;10.93;8.38;;;;;;;0.51;73.74;98521.06;5068351;28;20045;-70
2024/01/07 11:24:51;;;;;;;11.55;8.65;;;;;;;0.50;73.56;98508.94;5067937;28;20327;-69
2024/01/07 11:27:18;;;;;;;9.30;7.50;;;;;;;-0.29;73.69;98388.66;5068289;28;20045;-69
2024/01/07 11:29:54;;;;;;;11.27;8.18;;;;;;;0.50;73.54;98516.75;5067255;28;20041;-70
2024/01/07 11:32:24;;;;;;;9.63;7.45;;;;;;;0.60;73.39;98525.16;5068256;28;20079;-70
2024/01/07 11:34:53;;;;;;;8.95;7.45;;;;;;;0.58;73.31;98525.22;5067754;28;20248;-70
2024/01/07 11:37:20;;;;;;;11.15;8.15;;;;;;;0.58;73.45;98527.81;5067984;28;20045;-70
2024/01/07 11:39:48;;;;;;;12.63;8.43;;;;;;;0.69;73.63;98526.66;5068129;28;20068;-70
2024/01/07 11:42:15;;;;;;;10.55;8.13;;;;;;;0.40;73.52;98517.91;5067934;28;20340;-70